sensor_id;sensor_type;location;lat;lon;timestamp;P1;durP1;ratioP1;P2;durP2;ratioP2
76727;SDS011;65652;53.132;18.026;2023-04-21T00:02:10;14.80;;;8.30;;
76727;SDS011;65652;53.132;18.026;2023-04-21T00:04:40;17.60;;;8.40;;
76727;SDS011;65652;53.132;18.026;2023-04-21T00:07:07;14.30;;;7.90;;
76727;SDS011;65652;53.132;18.026;2023-04-21T00:09:33;18.30;;;8.00;;
76727;SDS011;65652;53.132;18.026;2023-04-21T00:11:59;13.90;;;8.20;;
76727;SDS011;65652;53.132;18.026;2023-04-21T00:14:26;14.10;;;8.00;;
76727;SDS011;65652;53.132;18.026;2023-04-21T00:16:52;14.20;;;7.80;;
76727;SDS011;65652;53.132;18.026;2023-04-21T00:19:18;14.40;;;7.80;;
76727;SDS011;65652;53.132;18.026;2023-04-21T00:21:45;14.00;;;7.90;;
76727;SDS011;65652;53.132;18.026;2023-04-21T00:24:11;16.20;;;8.90;;
76727;SDS011;65652;53.132;18.026;2023-04-21T00:26:37;13.80;;;8.00;;
76727;SDS011;65652;53.132;18.026;2023-04-21T00:29:03;13.10;;;7.50;;
76727;SDS011;65652;53.132;18.026;2023-04-21T00:31:30;14.20;;;7.80;;
76727;SDS011;65652;53.132;18.026;2023-04-21T00:33:56;14.60;;;8.50;;
76727;SDS011;65652;53.132;18.026;2023-04-21T00:36:23;14.20;;;7.80;;
76727;SDS011;65652;53.132;18.026;2023-04-21T00:38:49;15.70;;;7.90;;
76727;SDS011;65652;53.132;18.026;2023-04-21T00:41:15;13.90;;;8.20;;
76727;SDS011;65652;53.132;18.026;2023-04-21T00:43:58;14.80;;;7.90;;
76727;SDS011;65652;53.132;18.026;2023-04-21T00:46:34;14.70;;;8.10;;
76727;SDS011;65652;53.132;18.026;2023-04-21T00:49:05;16.50;;;8.70;;
76727;SDS011;65652;53.132;18.026;2023-04-21T00:51:33;14.10;;;7.40;;
76727;SDS011;65652;53.132;18.026;2023-04-21T00:54:00;16.30;;;7.60;;
76727;SDS011;65652;53.132;18.026;2023-04-21T00:56:30;15.70;;;7.80;;
76727;SDS011;65652;53.132;18.026;2023-04-21T00:59:00;16.70;;;8.40;;
76727;SDS011;65652;53.132;18.026;2023-04-21T01:01:27;13.50;;;7.00;;
76727;SDS011;65652;53.132;18.026;2023-04-21T01:03:57;17.30;;;8.70;;
76727;SDS011;65652;53.132;18.026;2023-04-21T01:06:26;15.50;;;7.30;;
76727;SDS011;65652;53.132;18.026;2023-04-21T01:08:53;14.30;;;7.70;;
76727;SDS011;65652;53.132;18.026;2023-04-21T01:11:20;14.90;;;7.60;;
76727;SDS011;65652;53.132;18.026;2023-04-21T01:13:46;13.70;;;7.10;;
76727;SDS011;65652;53.132;18.026;2023-04-21T01:16:16;13.80;;;7.50;;
76727;SDS011;65652;53.132;18.026;2023-04-21T01:18:43;16.30;;;8.10;;
76727;SDS011;65652;53.132;18.026;2023-04-21T01:21:10;15.90;;;7.70;;
76727;SDS011;65652;53.132;18.026;2023-04-21T01:23:40;15.60;;;8.10;;
76727;SDS011;65652;53.132;18.026;2023-04-21T01:26:07;16.20;;;7.60;;
76727;SDS011;65652;53.132;18.026;2023-04-21T01:28:35;16.60;;;8.10;;
76727;SDS011;65652;53.132;18.026;2023-04-21T01:31:03;15.10;;;7.30;;
76727;SDS011;65652;53.132;18.026;2023-04-21T01:33:30;14.90;;;7.20;;
76727;SDS011;65652;53.132;18.026;2023-04-21T01:35:57;13.60;;;7.80;;
76727;SDS011;65652;53.132;18.026;2023-04-21T01:38:26;13.20;;;7.30;;
76727;SDS011;65652;53.132;18.026;2023-04-21T01:40:53;14.90;;;7.40;;
76727;SDS011;65652;53.132;18.026;2023-04-21T01:43:21;13.90;;;8.20;;
76727;SDS011;65652;53.132;18.026;2023-04-21T01:45:49;16.20;;;8.10;;
76727;SDS011;65652;53.132;18.026;2023-04-21T01:48:15;13.90;;;7.50;;
76727;SDS011;65652;53.132;18.026;2023-04-21T01:50:42;14.90;;;7.80;;
76727;SDS011;65652;53.132;18.026;2023-04-21T01:53:09;15.70;;;7.50;;
76727;SDS011;65652;53.132;18.026;2023-04-21T01:55:35;18.00;;;8.10;;
76727;SDS011;65652;53.132;18.026;2023-04-21T01:58:02;14.20;;;7.60;;
76727;SDS011;65652;53.132;18.026;2023-04-21T02:00:29;17.30;;;8.00;;
76727;SDS011;65652;53.132;18.026;2023-04-21T02:02:56;14.80;;;7.20;;
76727;SDS011;65652;53.132;18.026;2023-04-21T02:05:22;14.20;;;7.40;;
76727;SDS011;65652;53.132;18.026;2023-04-21T02:07:48;15.30;;;7.70;;
76727;SDS011;65652;53.132;18.026;2023-04-21T02:10:14;14.80;;;7.70;;
76727;SDS011;65652;53.132;18.026;2023-04-21T02:12:42;15.60;;;7.90;;
76727;SDS011;65652;53.132;18.026;2023-04-21T02:15:09;16.90;;;8.10;;
76727;SDS011;65652;53.132;18.026;2023-04-21T02:17:36;18.20;;;8.30;;
76727;SDS011;65652;53.132;18.026;2023-04-21T02:20:02;14.90;;;7.10;;
76727;SDS011;65652;53.132;18.026;2023-04-21T02:22:29;14.70;;;8.10;;
76727;SDS011;65652;53.132;18.026;2023-04-21T02:24:57;16.30;;;7.60;;
76727;SDS011;65652;53.132;18.026;2023-04-21T02:27:23;16.20;;;7.80;;
76727;SDS011;65652;53.132;18.026;2023-04-21T02:29:50;13.70;;;7.30;;
76727;SDS011;65652;53.132;18.026;2023-04-21T02:32:16;12.90;;;7.70;;
76727;SDS011;65652;53.132;18.026;2023-04-21T02:34:43;13.70;;;7.90;;
76727;SDS011;65652;53.132;18.026;2023-04-21T02:37:10;16.40;;;7.20;;
76727;SDS011;65652;53.132;18.026;2023-04-21T02:39:36;14.20;;;7.20;;
76727;SDS011;65652;53.132;18.026;2023-04-21T02:42:04;12.80;;;7.20;;
76727;SDS011;65652;53.132;18.026;2023-04-21T02:44:30;15.20;;;7.20;;
76727;SDS011;65652;53.132;18.026;2023-04-21T02:46:56;14.90;;;7.30;;
76727;SDS011;65652;53.132;18.026;2023-04-21T02:49:23;14.70;;;7.00;;
76727;SDS011;65652;53.132;18.026;2023-04-21T02:51:49;14.10;;;7.40;;
76727;SDS011;65652;53.132;18.026;2023-04-21T02:54:15;16.70;;;7.30;;
76727;SDS011;65652;53.132;18.026;2023-04-21T02:56:41;14.50;;;7.90;;
76727;SDS011;65652;53.132;18.026;2023-04-21T02:59:07;13.90;;;7.10;;
76727;SDS011;65652;53.132;18.026;2023-04-21T03:01:34;18.30;;;7.70;;
76727;SDS011;65652;53.132;18.026;2023-04-21T03:04:00;14.60;;;7.90;;
76727;SDS011;65652;53.132;18.026;2023-04-21T03:06:27;13.40;;;7.30;;
76727;SDS011;65652;53.132;18.026;2023-04-21T03:08:53;13.80;;;7.40;;
76727;SDS011;65652;53.132;18.026;2023-04-21T03:11:19;15.50;;;7.60;;
76727;SDS011;65652;53.132;18.026;2023-04-21T03:13:45;15.10;;;7.60;;
76727;SDS011;65652;53.132;18.026;2023-04-21T03:16:12;13.80;;;6.90;;
76727;SDS011;65652;53.132;18.026;2023-04-21T03:18:38;15.70;;;7.20;;
76727;SDS011;65652;53.132;18.026;2023-04-21T03:21:04;16.50;;;7.40;;
76727;SDS011;65652;53.132;18.026;2023-04-21T03:23:30;15.10;;;7.40;;
76727;SDS011;65652;53.132;18.026;2023-04-21T03:25:56;16.60;;;7.40;;
76727;SDS011;65652;53.132;18.026;2023-04-21T03:28:22;16.90;;;7.20;;
76727;SDS011;65652;53.132;18.026;2023-04-21T03:30:50;15.20;;;7.40;;
76727;SDS011;65652;53.132;18.026;2023-04-21T03:33:16;13.30;;;7.40;;
76727;SDS011;65652;53.132;18.026;2023-04-21T03:35:43;15.10;;;7.50;;
76727;SDS011;65652;53.132;18.026;2023-04-21T03:38:09;14.20;;;7.30;;
76727;SDS011;65652;53.132;18.026;2023-04-21T03:40:35;15.80;;;7.90;;
76727;SDS011;65652;53.132;18.026;2023-04-21T03:43:02;13.10;;;6.90;;
76727;SDS011;65652;53.132;18.026;2023-04-21T03:45:28;16.50;;;8.50;;
76727;SDS011;65652;53.132;18.026;2023-04-21T03:47:54;13.80;;;7.50;;
76727;SDS011;65652;53.132;18.026;2023-04-21T03:50:21;15.90;;;7.80;;
76727;SDS011;65652;53.132;18.026;2023-04-21T03:52:48;17.40;;;8.00;;
76727;SDS011;65652;53.132;18.026;2023-04-21T03:55:14;16.80;;;8.80;;
76727;SDS011;65652;53.132;18.026;2023-04-21T03:57:40;26.50;;;13.60;;
76727;SDS011;65652;53.132;18.026;2023-04-21T04:00:07;33.00;;;14.10;;
76727;SDS011;65652;53.132;18.026;2023-04-21T04:02:40;30.60;;;14.10;;
76727;SDS011;65652;53.132;18.026;2023-04-21T04:05:06;30.40;;;13.30;;
76727;SDS011;65652;53.132;18.026;2023-04-21T04:07:33;46.60;;;17.20;;
76727;SDS011;65652;53.132;18.026;2023-04-21T04:09:59;34.10;;;14.40;;
76727;SDS011;65652;53.132;18.026;2023-04-21T04:12:26;31.50;;;13.60;;
76727;SDS011;65652;53.132;18.026;2023-04-21T04:14:52;23.10;;;10.70;;
76727;SDS011;65652;53.132;18.026;2023-04-21T04:17:18;18.20;;;9.40;;
76727;SDS011;65652;53.132;18.026;2023-04-21T04:19:44;20.40;;;8.70;;
76727;SDS011;65652;53.132;18.026;2023-04-21T04:22:10;19.50;;;8.60;;
76727;SDS011;65652;53.132;18.026;2023-04-21T04:24:37;17.90;;;8.90;;
76727;SDS011;65652;53.132;18.026;2023-04-21T04:27:03;16.20;;;8.30;;
76727;SDS011;65652;53.132;18.026;2023-04-21T04:29:30;16.20;;;8.70;;
76727;SDS011;65652;53.132;18.026;2023-04-21T04:31:57;19.20;;;8.60;;
76727;SDS011;65652;53.132;18.026;2023-04-21T04:34:23;14.80;;;8.40;;
76727;SDS011;65652;53.132;18.026;2023-04-21T04:36:49;17.20;;;8.50;;
76727;SDS011;65652;53.132;18.026;2023-04-21T04:39:16;17.20;;;8.40;;
76727;SDS011;65652;53.132;18.026;2023-04-21T04:41:42;15.90;;;8.10;;
76727;SDS011;65652;53.132;18.026;2023-04-21T04:44:08;17.40;;;9.10;;
76727;SDS011;65652;53.132;18.026;2023-04-21T04:46:35;16.40;;;8.70;;
76727;SDS011;65652;53.132;18.026;2023-04-21T04:49:02;13.50;;;7.50;;
76727;SDS011;65652;53.132;18.026;2023-04-21T04:51:28;14.80;;;8.60;;
76727;SDS011;65652;53.132;18.026;2023-04-21T04:53:54;16.90;;;8.20;;
76727;SDS011;65652;53.132;18.026;2023-04-21T04:56:21;17.70;;;8.70;;
76727;SDS011;65652;53.132;18.026;2023-04-21T04:58:48;15.10;;;8.20;;
76727;SDS011;65652;53.132;18.026;2023-04-21T05:01:14;16.20;;;8.10;;
76727;SDS011;65652;53.132;18.026;2023-04-21T05:03:42;14.40;;;8.40;;
76727;SDS011;65652;53.132;18.026;2023-04-21T05:06:09;15.60;;;8.30;;
76727;SDS011;65652;53.132;18.026;2023-04-21T05:08:36;17.50;;;8.60;;
76727;SDS011;65652;53.132;18.026;2023-04-21T05:11:02;16.80;;;8.40;;
76727;SDS011;65652;53.132;18.026;2023-04-21T05:13:28;16.30;;;7.80;;
76727;SDS011;65652;53.132;18.026;2023-04-21T05:15:58;16.20;;;8.00;;
76727;SDS011;65652;53.132;18.026;2023-04-21T05:18:27;16.90;;;8.40;;
76727;SDS011;65652;53.132;18.026;2023-04-21T05:20:53;16.30;;;8.60;;
76727;SDS011;65652;53.132;18.026;2023-04-21T05:23:20;20.10;;;9.30;;
76727;SDS011;65652;53.132;18.026;2023-04-21T05:25:46;14.70;;;7.60;;
76727;SDS011;65652;53.132;18.026;2023-04-21T05:28:13;19.60;;;8.90;;
76727;SDS011;65652;53.132;18.026;2023-04-21T05:30:40;16.90;;;9.30;;
76727;SDS011;65652;53.132;18.026;2023-04-21T05:33:06;19.10;;;8.60;;
76727;SDS011;65652;53.132;18.026;2023-04-21T05:35:34;18.20;;;8.70;;
76727;SDS011;65652;53.132;18.026;2023-04-21T05:38:00;20.10;;;8.70;;
76727;SDS011;65652;53.132;18.026;2023-04-21T05:40:26;18.50;;;9.20;;
76727;SDS011;65652;53.132;18.026;2023-04-21T05:42:52;15.60;;;7.60;;
76727;SDS011;65652;53.132;18.026;2023-04-21T05:45:19;17.30;;;8.00;;
76727;SDS011;65652;53.132;18.026;2023-04-21T05:47:45;18.00;;;8.60;;
76727;SDS011;65652;53.132;18.026;2023-04-21T05:50:11;15.20;;;8.00;;
76727;SDS011;65652;53.132;18.026;2023-04-21T05:52:37;17.40;;;8.30;;
76727;SDS011;65652;53.132;18.026;2023-04-21T05:55:04;16.40;;;8.40;;
76727;SDS011;65652;53.132;18.026;2023-04-21T05:57:30;16.40;;;7.80;;
76727;SDS011;65652;53.132;18.026;2023-04-21T05:59:57;15.70;;;8.10;;
76727;SDS011;65652;53.132;18.026;2023-04-21T06:02:23;16.00;;;8.40;;
76727;SDS011;65652;53.132;18.026;2023-04-21T06:04:49;16.30;;;7.80;;
76727;SDS011;65652;53.132;18.026;2023-04-21T06:07:15;13.10;;;7.50;;
76727;SDS011;65652;53.132;18.026;2023-04-21T06:09:48;15.70;;;8.70;;
76727;SDS011;65652;53.132;18.026;2023-04-21T06:12:15;15.80;;;8.40;;
76727;SDS011;65652;53.132;18.026;2023-04-21T06:14:42;16.00;;;7.80;;
76727;SDS011;65652;53.132;18.026;2023-04-21T06:17:08;14.70;;;8.20;;
76727;SDS011;65652;53.132;18.026;2023-04-21T06:19:37;16.00;;;8.80;;
76727;SDS011;65652;53.132;18.026;2023-04-21T06:22:04;17.30;;;8.20;;
76727;SDS011;65652;53.132;18.026;2023-04-21T06:24:33;22.40;;;8.60;;
76727;SDS011;65652;53.132;18.026;2023-04-21T06:26:59;16.50;;;8.20;;
76727;SDS011;65652;53.132;18.026;2023-04-21T06:29:26;17.50;;;8.90;;
76727;SDS011;65652;53.132;18.026;2023-04-21T06:31:52;15.90;;;8.80;;
76727;SDS011;65652;53.132;18.026;2023-04-21T06:34:18;14.60;;;8.40;;
76727;SDS011;65652;53.132;18.026;2023-04-21T06:36:46;15.40;;;9.00;;
76727;SDS011;65652;53.132;18.026;2023-04-21T06:39:12;12.80;;;7.90;;
76727;SDS011;65652;53.132;18.026;2023-04-21T06:41:38;16.30;;;8.00;;
76727;SDS011;65652;53.132;18.026;2023-04-21T06:44:04;15.50;;;8.30;;
76727;SDS011;65652;53.132;18.026;2023-04-21T06:46:30;16.90;;;8.60;;
76727;SDS011;65652;53.132;18.026;2023-04-21T06:48:56;13.70;;;7.40;;
76727;SDS011;65652;53.132;18.026;2023-04-21T06:51:22;15.40;;;8.70;;
76727;SDS011;65652;53.132;18.026;2023-04-21T06:53:48;11.30;;;7.00;;
76727;SDS011;65652;53.132;18.026;2023-04-21T06:56:15;13.80;;;7.50;;
76727;SDS011;65652;53.132;18.026;2023-04-21T06:58:41;12.00;;;6.20;;
76727;SDS011;65652;53.132;18.026;2023-04-21T07:01:07;11.70;;;5.90;;
76727;SDS011;65652;53.132;18.026;2023-04-21T07:03:33;10.50;;;5.50;;
76727;SDS011;65652;53.132;18.026;2023-04-21T07:06:00;11.00;;;6.10;;
76727;SDS011;65652;53.132;18.026;2023-04-21T07:08:26;10.80;;;5.40;;
76727;SDS011;65652;53.132;18.026;2023-04-21T07:10:52;10.10;;;4.70;;
76727;SDS011;65652;53.132;18.026;2023-04-21T07:13:18;12.50;;;6.10;;
76727;SDS011;65652;53.132;18.026;2023-04-21T07:15:44;9.70;;;5.20;;
76727;SDS011;65652;53.132;18.026;2023-04-21T07:18:11;10.60;;;5.70;;
76727;SDS011;65652;53.132;18.026;2023-04-21T07:20:37;9.80;;;5.00;;
76727;SDS011;65652;53.132;18.026;2023-04-21T07:23:03;9.90;;;5.40;;
76727;SDS011;65652;53.132;18.026;2023-04-21T07:25:29;9.90;;;4.80;;
76727;SDS011;65652;53.132;18.026;2023-04-21T07:27:56;10.40;;;5.60;;
76727;SDS011;65652;53.132;18.026;2023-04-21T07:30:22;11.80;;;5.10;;
76727;SDS011;65652;53.132;18.026;2023-04-21T07:32:48;9.90;;;5.00;;
76727;SDS011;65652;53.132;18.026;2023-04-21T07:35:14;9.20;;;4.90;;
76727;SDS011;65652;53.132;18.026;2023-04-21T07:37:40;12.50;;;5.10;;
76727;SDS011;65652;53.132;18.026;2023-04-21T07:40:07;12.10;;;5.50;;
76727;SDS011;65652;53.132;18.026;2023-04-21T07:42:34;10.00;;;4.90;;
76727;SDS011;65652;53.132;18.026;2023-04-21T07:45:00;14.70;;;5.30;;
76727;SDS011;65652;53.132;18.026;2023-04-21T07:47:27;9.90;;;4.90;;
76727;SDS011;65652;53.132;18.026;2023-04-21T07:49:53;9.90;;;5.00;;
76727;SDS011;65652;53.132;18.026;2023-04-21T07:52:20;10.70;;;4.80;;
76727;SDS011;65652;53.132;18.026;2023-04-21T07:54:46;8.80;;;4.70;;
76727;SDS011;65652;53.132;18.026;2023-04-21T07:57:12;7.70;;;4.40;;
76727;SDS011;65652;53.132;18.026;2023-04-21T07:59:38;8.40;;;4.40;;
76727;SDS011;65652;53.132;18.026;2023-04-21T08:02:04;9.60;;;4.90;;
76727;SDS011;65652;53.132;18.026;2023-04-21T08:04:31;9.80;;;4.40;;
76727;SDS011;65652;53.132;18.026;2023-04-21T08:06:57;10.40;;;4.80;;
76727;SDS011;65652;53.132;18.026;2023-04-21T08:09:23;8.90;;;4.60;;
76727;SDS011;65652;53.132;18.026;2023-04-21T08:11:49;8.70;;;4.50;;
76727;SDS011;65652;53.132;18.026;2023-04-21T08:14:15;7.90;;;3.90;;
76727;SDS011;65652;53.132;18.026;2023-04-21T08:16:41;9.50;;;4.60;;
76727;SDS011;65652;53.132;18.026;2023-04-21T08:19:08;8.40;;;4.40;;
76727;SDS011;65652;53.132;18.026;2023-04-21T08:21:35;9.60;;;4.50;;
76727;SDS011;65652;53.132;18.026;2023-04-21T08:24:01;11.10;;;4.10;;
76727;SDS011;65652;53.132;18.026;2023-04-21T08:26:27;9.60;;;4.40;;
76727;SDS011;65652;53.132;18.026;2023-04-21T08:28:55;9.00;;;4.00;;
76727;SDS011;65652;53.132;18.026;2023-04-21T08:31:21;8.70;;;4.00;;
76727;SDS011;65652;53.132;18.026;2023-04-21T08:33:48;8.00;;;4.10;;
76727;SDS011;65652;53.132;18.026;2023-04-21T08:36:14;6.90;;;3.90;;
76727;SDS011;65652;53.132;18.026;2023-04-21T08:38:41;11.20;;;4.00;;
76727;SDS011;65652;53.132;18.026;2023-04-21T08:41:08;7.70;;;4.20;;
76727;SDS011;65652;53.132;18.026;2023-04-21T08:43:35;10.00;;;4.50;;
76727;SDS011;65652;53.132;18.026;2023-04-21T08:46:05;8.10;;;4.00;;
76727;SDS011;65652;53.132;18.026;2023-04-21T08:48:34;8.80;;;3.50;;
76727;SDS011;65652;53.132;18.026;2023-04-21T08:51:01;7.50;;;3.20;;
76727;SDS011;65652;53.132;18.026;2023-04-21T08:53:28;6.00;;;3.10;;
76727;SDS011;65652;53.132;18.026;2023-04-21T08:55:54;7.30;;;3.30;;
76727;SDS011;65652;53.132;18.026;2023-04-21T08:58:21;6.90;;;3.70;;
76727;SDS011;65652;53.132;18.026;2023-04-21T09:00:48;6.90;;;3.70;;
76727;SDS011;65652;53.132;18.026;2023-04-21T09:03:22;8.00;;;3.30;;
76727;SDS011;65652;53.132;18.026;2023-04-21T09:05:59;8.00;;;3.20;;
76727;SDS011;65652;53.132;18.026;2023-04-21T09:08:34;8.30;;;3.20;;
76727;SDS011;65652;53.132;18.026;2023-04-21T09:11:04;6.60;;;3.20;;
76727;SDS011;65652;53.132;18.026;2023-04-21T09:13:32;9.00;;;3.20;;
76727;SDS011;65652;53.132;18.026;2023-04-21T09:16:01;6.90;;;3.00;;
76727;SDS011;65652;53.132;18.026;2023-04-21T09:18:29;7.30;;;3.20;;
76727;SDS011;65652;53.132;18.026;2023-04-21T09:21:08;6.40;;;3.10;;
76727;SDS011;65652;53.132;18.026;2023-04-21T09:23:42;5.80;;;2.90;;
76727;SDS011;65652;53.132;18.026;2023-04-21T09:26:10;7.20;;;3.00;;
76727;SDS011;65652;53.132;18.026;2023-04-21T09:28:39;7.30;;;3.30;;
76727;SDS011;65652;53.132;18.026;2023-04-21T09:31:11;6.90;;;2.90;;
76727;SDS011;65652;53.132;18.026;2023-04-21T09:33:43;6.60;;;2.90;;
76727;SDS011;65652;53.132;18.026;2023-04-21T09:36:23;6.80;;;2.70;;
76727;SDS011;65652;53.132;18.026;2023-04-21T09:38:54;6.20;;;2.90;;
76727;SDS011;65652;53.132;18.026;2023-04-21T09:41:22;6.00;;;2.60;;
76727;SDS011;65652;53.132;18.026;2023-04-21T09:43:48;7.10;;;3.20;;
76727;SDS011;65652;53.132;18.026;2023-04-21T09:46:15;6.80;;;3.30;;
76727;SDS011;65652;53.132;18.026;2023-04-21T09:48:45;6.10;;;3.00;;
76727;SDS011;65652;53.132;18.026;2023-04-21T09:51:13;7.70;;;3.50;;
76727;SDS011;65652;53.132;18.026;2023-04-21T09:53:43;5.30;;;2.70;;
76727;SDS011;65652;53.132;18.026;2023-04-21T09:56:11;8.10;;;3.10;;
76727;SDS011;65652;53.132;18.026;2023-04-21T09:58:45;6.30;;;3.00;;
76727;SDS011;65652;53.132;18.026;2023-04-21T10:01:14;7.50;;;2.90;;
76727;SDS011;65652;53.132;18.026;2023-04-21T10:03:40;6.90;;;2.90;;
76727;SDS011;65652;53.132;18.026;2023-04-21T10:06:09;6.20;;;2.40;;
76727;SDS011;65652;53.132;18.026;2023-04-21T10:08:36;7.20;;;2.90;;
76727;SDS011;65652;53.132;18.026;2023-04-21T10:11:03;6.50;;;2.70;;
76727;SDS011;65652;53.132;18.026;2023-04-21T10:13:30;8.80;;;3.10;;
76727;SDS011;65652;53.132;18.026;2023-04-21T10:16:16;7.00;;;2.90;;
76727;SDS011;65652;53.132;18.026;2023-04-21T10:18:43;5.90;;;3.00;;
76727;SDS011;65652;53.132;18.026;2023-04-21T10:21:11;6.30;;;2.70;;
76727;SDS011;65652;53.132;18.026;2023-04-21T10:39:24;6.40;;;2.80;;
76727;SDS011;65652;53.132;18.026;2023-04-21T10:41:50;5.50;;;2.60;;
76727;SDS011;65652;53.132;18.026;2023-04-21T10:44:16;5.70;;;2.70;;
76727;SDS011;65652;53.132;18.026;2023-04-21T10:46:46;6.80;;;2.80;;
76727;SDS011;65652;53.132;18.026;2023-04-21T10:54:25;6.20;;;2.70;;
76727;SDS011;65652;53.132;18.026;2023-04-21T10:56:53;8.20;;;2.80;;
76727;SDS011;65652;53.132;18.026;2023-04-21T10:59:20;6.10;;;2.40;;
76727;SDS011;65652;53.132;18.026;2023-04-21T11:01:47;8.40;;;3.40;;
76727;SDS011;65652;53.132;18.026;2023-04-21T11:04:14;7.40;;;3.30;;
76727;SDS011;65652;53.132;18.026;2023-04-21T11:06:41;6.80;;;3.20;;
76727;SDS011;65652;53.132;18.026;2023-04-21T11:09:07;7.90;;;3.10;;
76727;SDS011;65652;53.132;18.026;2023-04-21T11:11:36;7.00;;;2.90;;
76727;SDS011;65652;53.132;18.026;2023-04-21T11:14:03;6.70;;;3.10;;
76727;SDS011;65652;53.132;18.026;2023-04-21T11:16:29;6.00;;;3.20;;
76727;SDS011;65652;53.132;18.026;2023-04-21T11:18:56;6.00;;;3.10;;
76727;SDS011;65652;53.132;18.026;2023-04-21T11:21:22;6.90;;;3.00;;
76727;SDS011;65652;53.132;18.026;2023-04-21T11:23:50;6.10;;;2.40;;
76727;SDS011;65652;53.132;18.026;2023-04-21T11:26:33;5.40;;;2.80;;
76727;SDS011;65652;53.132;18.026;2023-04-21T11:29:03;7.90;;;3.30;;
76727;SDS011;65652;53.132;18.026;2023-04-21T11:31:31;7.80;;;3.30;;
76727;SDS011;65652;53.132;18.026;2023-04-21T11:33:58;7.10;;;2.80;;
76727;SDS011;65652;53.132;18.026;2023-04-21T11:36:25;5.40;;;2.60;;
76727;SDS011;65652;53.132;18.026;2023-04-21T11:38:52;6.50;;;3.20;;
76727;SDS011;65652;53.132;18.026;2023-04-21T11:41:21;7.10;;;3.40;;
76727;SDS011;65652;53.132;18.026;2023-04-21T11:43:49;5.70;;;3.20;;
76727;SDS011;65652;53.132;18.026;2023-04-21T11:46:16;7.80;;;3.30;;
76727;SDS011;65652;53.132;18.026;2023-04-21T11:49:03;5.70;;;3.30;;
76727;SDS011;65652;53.132;18.026;2023-04-21T11:51:40;5.90;;;2.90;;
76727;SDS011;65652;53.132;18.026;2023-04-21T11:54:11;7.30;;;3.20;;
76727;SDS011;65652;53.132;18.026;2023-04-21T11:56:41;6.60;;;2.90;;
76727;SDS011;65652;53.132;18.026;2023-04-21T12:01:51;6.50;;;3.20;;
76727;SDS011;65652;53.132;18.026;2023-04-21T12:04:20;7.20;;;3.20;;
76727;SDS011;65652;53.132;18.026;2023-04-21T12:06:58;6.30;;;3.30;;
76727;SDS011;65652;53.132;18.026;2023-04-21T12:09:28;5.50;;;3.00;;
76727;SDS011;65652;53.132;18.026;2023-04-21T12:11:55;6.60;;;3.20;;
76727;SDS011;65652;53.132;18.026;2023-04-21T12:14:24;7.00;;;3.30;;
76727;SDS011;65652;53.132;18.026;2023-04-21T12:16:52;6.60;;;3.00;;
76727;SDS011;65652;53.132;18.026;2023-04-21T12:19:39;6.50;;;3.10;;
76727;SDS011;65652;53.132;18.026;2023-04-21T12:22:07;6.20;;;3.10;;
76727;SDS011;65652;53.132;18.026;2023-04-21T12:27:01;8.20;;;3.40;;
76727;SDS011;65652;53.132;18.026;2023-04-21T12:29:27;6.30;;;3.30;;
76727;SDS011;65652;53.132;18.026;2023-04-21T12:31:54;7.90;;;3.20;;
76727;SDS011;65652;53.132;18.026;2023-04-21T12:34:20;6.40;;;3.10;;
76727;SDS011;65652;53.132;18.026;2023-04-21T12:36:46;6.40;;;3.10;;
76727;SDS011;65652;53.132;18.026;2023-04-21T12:39:13;6.30;;;3.10;;
76727;SDS011;65652;53.132;18.026;2023-04-21T12:41:42;6.30;;;3.10;;
76727;SDS011;65652;53.132;18.026;2023-04-21T12:44:08;5.30;;;3.00;;
76727;SDS011;65652;53.132;18.026;2023-04-21T12:46:34;7.50;;;3.20;;
76727;SDS011;65652;53.132;18.026;2023-04-21T12:49:00;6.80;;;3.40;;
76727;SDS011;65652;53.132;18.026;2023-04-21T12:51:28;6.20;;;3.10;;
76727;SDS011;65652;53.132;18.026;2023-04-21T12:53:54;6.30;;;3.50;;
76727;SDS011;65652;53.132;18.026;2023-04-21T12:56:20;5.20;;;3.00;;
76727;SDS011;65652;53.132;18.026;2023-04-21T12:58:47;6.20;;;3.30;;
76727;SDS011;65652;53.132;18.026;2023-04-21T13:01:13;7.90;;;3.10;;
76727;SDS011;65652;53.132;18.026;2023-04-21T13:03:40;6.00;;;3.20;;
76727;SDS011;65652;53.132;18.026;2023-04-21T13:06:07;7.40;;;3.10;;
76727;SDS011;65652;53.132;18.026;2023-04-21T13:08:34;6.40;;;2.90;;
76727;SDS011;65652;53.132;18.026;2023-04-21T13:11:01;5.40;;;3.10;;
76727;SDS011;65652;53.132;18.026;2023-04-21T13:13:28;5.90;;;2.60;;
76727;SDS011;65652;53.132;18.026;2023-04-21T13:15:54;5.40;;;2.80;;
76727;SDS011;65652;53.132;18.026;2023-04-21T13:18:20;6.50;;;2.80;;
76727;SDS011;65652;53.132;18.026;2023-04-21T13:20:46;6.70;;;2.90;;
76727;SDS011;65652;53.132;18.026;2023-04-21T13:23:12;6.10;;;3.10;;
76727;SDS011;65652;53.132;18.026;2023-04-21T13:25:39;5.40;;;2.70;;
76727;SDS011;65652;53.132;18.026;2023-04-21T13:28:06;7.00;;;3.10;;
76727;SDS011;65652;53.132;18.026;2023-04-21T13:30:33;6.80;;;2.70;;
76727;SDS011;65652;53.132;18.026;2023-04-21T13:32:59;6.00;;;2.80;;
76727;SDS011;65652;53.132;18.026;2023-04-21T13:35:25;6.50;;;2.80;;
76727;SDS011;65652;53.132;18.026;2023-04-21T13:37:51;5.60;;;2.70;;
76727;SDS011;65652;53.132;18.026;2023-04-21T13:42:45;6.50;;;2.60;;
76727;SDS011;65652;53.132;18.026;2023-04-21T13:45:11;7.10;;;3.30;;
76727;SDS011;65652;53.132;18.026;2023-04-21T13:47:37;5.70;;;2.80;;
76727;SDS011;65652;53.132;18.026;2023-04-21T13:50:04;6.00;;;2.50;;
76727;SDS011;65652;53.132;18.026;2023-04-21T13:52:30;5.90;;;2.70;;
76727;SDS011;65652;53.132;18.026;2023-04-21T13:54:58;7.60;;;2.80;;
76727;SDS011;65652;53.132;18.026;2023-04-21T13:57:25;7.70;;;2.90;;
76727;SDS011;65652;53.132;18.026;2023-04-21T13:59:51;7.60;;;3.10;;
76727;SDS011;65652;53.132;18.026;2023-04-21T14:02:19;5.60;;;3.00;;
76727;SDS011;65652;53.132;18.026;2023-04-21T14:04:48;5.60;;;3.10;;
76727;SDS011;65652;53.132;18.026;2023-04-21T14:07:14;7.90;;;3.10;;
76727;SDS011;65652;53.132;18.026;2023-04-21T14:09:43;7.20;;;2.90;;
76727;SDS011;65652;53.132;18.026;2023-04-21T14:12:09;6.20;;;2.90;;
76727;SDS011;65652;53.132;18.026;2023-04-21T14:14:36;5.30;;;2.90;;
76727;SDS011;65652;53.132;18.026;2023-04-21T14:17:02;7.60;;;3.20;;
76727;SDS011;65652;53.132;18.026;2023-04-21T14:19:28;5.70;;;3.20;;
76727;SDS011;65652;53.132;18.026;2023-04-21T14:21:56;6.00;;;2.80;;
76727;SDS011;65652;53.132;18.026;2023-04-21T14:24:23;5.50;;;2.80;;
76727;SDS011;65652;53.132;18.026;2023-04-21T14:26:51;6.50;;;3.30;;
76727;SDS011;65652;53.132;18.026;2023-04-21T14:29:18;5.00;;;2.70;;
76727;SDS011;65652;53.132;18.026;2023-04-21T14:31:44;6.00;;;3.10;;
76727;SDS011;65652;53.132;18.026;2023-04-21T14:34:10;6.20;;;2.80;;
76727;SDS011;65652;53.132;18.026;2023-04-21T14:36:36;5.10;;;2.80;;
76727;SDS011;65652;53.132;18.026;2023-04-21T14:39:02;5.90;;;2.90;;
76727;SDS011;65652;53.132;18.026;2023-04-21T14:41:29;6.10;;;2.90;;
76727;SDS011;65652;53.132;18.026;2023-04-21T14:43:55;8.10;;;3.40;;
76727;SDS011;65652;53.132;18.026;2023-04-21T14:46:22;9.00;;;3.00;;
76727;SDS011;65652;53.132;18.026;2023-04-21T14:48:48;5.70;;;3.00;;
76727;SDS011;65652;53.132;18.026;2023-04-21T14:51:14;6.40;;;3.10;;
76727;SDS011;65652;53.132;18.026;2023-04-21T14:53:41;6.90;;;3.30;;
76727;SDS011;65652;53.132;18.026;2023-04-21T14:56:07;9.60;;;3.20;;
76727;SDS011;65652;53.132;18.026;2023-04-21T14:58:33;5.90;;;2.90;;